Time;durP1;ratioP1;P1;durP2;ratioP2;P2;SDS_P1;SDS_P2;PMS_P1;PMS_P2;Temp;Humidity;BMP_temperature;BMP_pressure;BME280_temperature;BME280_humidity;BME280_pressure;Samples;Min_cycle;Max_cycle;Signal;HPM_P1;HPM_P2
2021/11/23 00:01:39;;;;;;;5.45;2.20;;;;;;;0.25;72.37;101131.78;5009212;28;106072;-82
2021/11/23 00:04:04;;;;;;;4.40;2.35;;;;;;;0.23;72.68;101137.06;5010170;28;106704;-80
2021/11/23 00:06:34;;;;;;;5.03;2.63;;;;;;;0.22;72.84;101132.78;5010304;28;105859;-78
2021/11/23 00:08:59;;;;;;;4.25;2.53;;;;;;;0.20;72.64;101129.38;5010928;28;105923;-77
2021/11/23 00:11:25;;;;;;;3.75;2.15;;;;;;;0.19;72.61;101135.53;5010102;28;106348;-75
2021/11/23 00:13:50;;;;;;;6.25;2.10;;;;;;;0.13;72.68;101141.09;5010727;28;105901;-80
2021/11/23 00:16:17;;;;;;;8.55;3.65;;;;;;;0.09;72.44;101147.44;5010229;28;105980;-78
2021/11/23 00:18:42;;;;;;;6.68;3.00;;;;;;;0.03;72.51;101152.97;5010772;28;106109;-80
2021/11/23 00:21:08;;;;;;;6.82;3.35;;;;;;;0.00;72.78;101156.63;5010955;28;106234;-80
2021/11/23 00:23:33;;;;;;;4.00;2.22;;;;;;;0.01;72.84;101165.31;5010147;28;105957;-80
2021/11/23 00:25:59;;;;;;;4.88;2.25;;;;;;;0.02;72.95;101164.41;5009848;28;106040;-79
2021/11/23 00:28:25;;;;;;;5.55;3.15;;;;;;;0.10;73.56;101157.81;5010891;28;106000;-81
2021/11/23 00:30:50;;;;;;;9.13;3.25;;;;;;;0.20;73.60;101145.09;5010580;28;106144;-80
2021/11/23 00:33:16;;;;;;;4.18;2.50;;;;;;;0.29;73.48;101152.47;5009876;28;105913;-81
2021/11/23 00:35:42;;;;;;;7.88;2.95;;;;;;;0.34;73.23;101154.84;5009746;28;106489;-82
2021/11/23 00:38:07;;;;;;;5.38;2.30;;;;;;;0.39;73.25;101152.00;5009932;28;105969;-80
2021/11/23 00:40:33;;;;;;;4.68;2.65;;;;;;;0.43;73.29;101153.53;5010218;28;106183;-80
2021/11/23 00:43:03;;;;;;;8.68;2.70;;;;;;;0.46;73.06;101148.13;5009845;28;107101;-78
2021/11/23 00:45:29;;;;;;;5.15;3.05;;;;;;;0.48;73.13;101146.28;5009958;28;105796;-79
2021/11/23 00:47:54;;;;;;;7.85;3.03;;;;;;;0.44;72.78;101153.44;5010410;28;105965;-80
2021/11/23 00:50:20;;;;;;;6.60;2.78;;;;;;;0.41;72.52;101150.13;5010466;28;106231;-77
2021/11/23 00:52:45;;;;;;;6.75;2.75;;;;;;;0.38;72.55;101156.38;5009448;28;106009;-77
2021/11/23 00:55:12;;;;;;;6.82;3.25;;;;;;;0.38;72.69;101145.06;5009673;28;105957;-78
2021/11/23 00:57:38;;;;;;;8.02;3.80;;;;;;;0.35;72.77;101151.31;5010104;28;106450;-79
2021/11/23 01:00:06;;;;;;;6.40;3.05;;;;;;;0.31;72.70;101148.00;5009615;28;106543;-76
2021/11/23 01:02:32;;;;;;;5.63;3.03;;;;;;;0.29;72.79;101151.66;5008944;28;106406;-75
2021/11/23 01:04:57;;;;;;;4.63;2.58;;;;;;;0.28;72.92;101150.78;5009151;28;105851;-77
2021/11/23 01:07:23;;;;;;;7.10;3.40;;;;;;;0.31;73.10;101141.91;5010375;28;105910;-78
2021/11/23 01:09:49;;;;;;;6.57;3.33;;;;;;;0.27;72.43;101146.47;5009219;28;106138;-77
2021/11/23 01:12:15;;;;;;;5.82;2.70;;;;;;;0.24;72.62;101146.63;5008882;28;106152;-79
2021/11/23 01:14:40;;;;;;;5.63;3.22;;;;;;;0.17;72.64;101146.09;5009306;28;106371;-78
2021/11/23 01:17:06;;;;;;;8.10;3.25;;;;;;;0.11;72.75;101137.69;5009986;28;106028;-78
2021/11/23 01:19:31;;;;;;;5.43;3.45;;;;;;;0.04;72.69;101131.09;5009408;28;106299;-78
2021/11/23 01:21:57;;;;;;;5.55;3.35;;;;;;;-0.04;72.58;101129.72;5008942;28;105841;-77
2021/11/23 01:24:22;;;;;;;6.20;3.08;;;;;;;-0.12;72.66;101134.50;5009481;28;105890;-76
2021/11/23 01:26:48;;;;;;;4.70;2.60;;;;;;;-0.20;72.57;101128.81;5009711;28;106219;-76
2021/11/23 01:29:13;;;;;;;4.80;2.67;;;;;;;-0.28;72.85;101128.34;5009321;28;106422;-76
2021/11/23 01:31:39;;;;;;;5.82;2.75;;;;;;;-0.38;72.88;101131.44;5008825;28;106327;-75
2021/11/23 01:34:05;;;;;;;7.82;2.47;;;;;;;-0.45;73.01;101130.03;5008848;28;106233;-76
2021/11/23 01:36:31;;;;;;;7.10;2.33;;;;;;;-0.48;73.02;101140.63;5009412;28;105886;-75
2021/11/23 01:38:57;;;;;;;3.45;1.90;;;;;;;-0.53;73.22;101132.19;5008854;28;106154;-75
2021/11/23 01:41:23;;;;;;;3.83;2.40;;;;;;;-0.59;73.02;101129.88;5008875;28;106380;-75
2021/11/23 01:43:49;;;;;;;4.75;2.30;;;;;;;-0.62;73.53;101132.63;5008333;28;105981;-76
2021/11/23 01:46:15;;;;;;;4.25;2.40;;;;;;;-0.65;73.37;101124.94;5009374;28;105827;-76
2021/11/23 01:48:41;;;;;;;4.05;2.40;;;;;;;-0.68;73.23;101123.31;5008513;28;106151;-75
2021/11/23 01:51:06;;;;;;;4.03;2.70;;;;;;;-0.72;73.62;101134.84;5008142;28;106855;-78
2021/11/23 01:53:32;;;;;;;7.13;2.53;;;;;;;-0.76;73.77;101138.53;5006376;28;106412;-75
2021/11/23 01:55:57;;;;;;;3.17;2.00;;;;;;;-0.80;73.48;101129.97;5009099;28;105803;-78
2021/11/23 01:58:23;;;;;;;5.65;3.03;;;;;;;-0.82;73.57;101144.94;5008163;28;106231;-77
2021/11/23 02:00:49;;;;;;;4.72;2.53;;;;;;;-0.87;73.95;101147.75;5008197;28;106041;-76
2021/11/23 02:03:15;;;;;;;5.05;3.22;;;;;;;-0.89;73.38;101138.25;5007777;28;105895;-78
2021/11/23 02:05:41;;;;;;;5.05;3.08;;;;;;;-0.93;74.13;101144.56;5008989;28;105835;-80
2021/11/23 02:08:07;;;;;;;6.05;2.83;;;;;;;-0.98;73.71;101151.81;5008670;28;106477;-77
2021/11/23 02:10:33;;;;;;;5.50;3.05;;;;;;;-1.00;74.23;101143.16;5007874;28;106542;-77
2021/11/23 02:12:59;;;;;;;6.53;2.80;;;;;;;-1.04;74.11;101143.31;5008081;28;105836;-74
2021/11/23 02:15:25;;;;;;;4.03;2.28;;;;;;;-1.06;74.40;101139.91;5008670;28;106060;-81
2021/11/23 02:17:50;;;;;;;4.57;3.05;;;;;;;-1.09;74.12;101140.06;5007826;28;106314;-75
2021/11/23 02:20:19;;;;;;;7.07;2.72;;;;;;;-1.12;74.12;101141.97;5007645;28;107355;-76
2021/11/23 02:22:45;;;;;;;7.68;2.90;;;;;;;-1.12;73.97;101142.84;5007885;28;106253;-74
2021/11/23 02:25:12;;;;;;;3.95;2.33;;;;;;;-1.16;73.81;101148.25;5010039;28;105921;-77
2021/11/23 02:27:38;;;;;;;3.78;2.47;;;;;;;-1.18;74.24;101140.50;5011548;28;106178;-74
2021/11/23 02:30:06;;;;;;;7.32;2.50;;;;;;;-1.22;74.64;101129.34;5011062;28;106128;-78
2021/11/23 02:32:51;;;;;;;3.45;2.35;;;;;;;-1.26;74.28;101135.63;5011790;28;105800;-75
2021/11/23 02:35:23;;;;;;;5.00;2.63;;;;;;;-1.27;74.49;101140.91;5012304;28;105765;-75
2021/11/23 02:37:52;;;;;;;4.72;2.53;;;;;;;-1.31;74.11;101144.59;5011078;28;105886;-76
2021/11/23 02:40:19;;;;;;;7.53;3.38;;;;;;;-1.32;74.63;101148.13;5010898;28;105793;-76
2021/11/23 02:42:46;;;;;;;12.90;3.50;;;;;;;-1.33;74.77;101149.88;5010652;28;105964;-73
2021/11/23 02:45:12;;;;;;;6.70;3.40;;;;;;;-1.33;74.32;101151.66;5011925;28;105897;-79
2021/11/23 02:47:39;;;;;;;6.57;3.17;;;;;;;-1.33;74.85;101149.03;5011013;28;106687;-80
2021/11/23 02:50:07;;;;;;;5.78;4.05;;;;;;;-1.37;74.51;101146.59;5009139;28;107616;-74
2021/11/23 02:52:33;;;;;;;5.65;3.55;;;;;;;-1.40;74.79;101154.53;5010693;28;105823;-81
2021/11/23 02:55:02;;;;;;;3.05;2.10;;;;;;;-1.41;75.25;101147.63;5011867;28;106275;-79
2021/11/23 02:57:30;;;;;;;5.47;2.75;;;;;;;-1.39;74.70;101153.63;5010842;28;106182;-77
2021/11/23 02:59:55;;;;;;;4.28;2.53;;;;;;;-1.41;75.04;101150.25;5010700;28;106777;-78
2021/11/23 03:02:21;;;;;;;4.93;2.80;;;;;;;-1.42;74.57;101150.28;5010585;28;105962;-73
2021/11/23 03:04:52;;;;;;;10.27;3.00;;;;;;;-1.43;75.17;101148.63;5011434;28;105823;-77
2021/11/23 03:07:17;;;;;;;7.47;2.60;;;;;;;-1.43;74.92;101152.06;5010543;28;106175;-76
2021/11/23 03:09:43;;;;;;;5.70;3.03;;;;;;;-1.43;75.06;101146.84;5009531;28;107858;-76
2021/11/23 03:12:16;;;;;;;4.53;2.58;;;;;;;-1.47;74.69;101155.75;5010575;28;106266;-78
2021/11/23 03:14:42;;;;;;;6.95;2.78;;;;;;;-1.49;74.99;101154.97;5011695;28;105927;-77
2021/11/23 03:17:09;;;;;;;3.25;2.45;;;;;;;-1.52;74.73;101151.66;5011318;28;106233;-76
2021/11/23 03:19:34;;;;;;;4.28;2.45;;;;;;;-1.55;75.26;101163.06;5010665;28;107303;-76
2021/11/23 03:22:02;;;;;;;7.68;2.55;;;;;;;-1.55;75.44;101152.63;5010015;28;106520;-76
2021/11/23 03:24:27;;;;;;;6.35;3.13;;;;;;;-1.57;74.88;101159.69;5011181;28;105845;-75
2021/11/23 03:26:53;;;;;;;3.45;2.55;;;;;;;-1.59;75.08;101151.06;5010839;28;106270;-76
2021/11/23 03:29:18;;;;;;;4.63;2.58;;;;;;;-1.63;75.37;101152.13;5010219;28;106040;-77
2021/11/23 03:31:43;;;;;;;3.67;2.28;;;;;;;-1.64;75.31;101156.50;5008600;28;106130;-77
2021/11/23 03:34:09;;;;;;;5.32;2.83;;;;;;;-1.67;75.48;101148.78;5011014;28;105866;-78
2021/11/23 03:36:39;;;;;;;4.85;2.67;;;;;;;-1.70;75.25;101147.16;5011003;28;105892;-76
2021/11/23 03:39:06;;;;;;;5.85;2.65;;;;;;;-1.70;75.69;101147.16;5009971;28;106803;-76
2021/11/23 03:41:31;;;;;;;4.28;2.70;;;;;;;-1.72;75.26;101140.31;5010662;28;105895;-77
2021/11/23 03:43:57;;;;;;;4.68;2.95;;;;;;;-1.76;75.33;101142.22;5011930;28;105810;-78
2021/11/23 03:46:23;;;;;;;5.72;2.85;;;;;;;-1.77;75.22;101134.44;5012001;28;106159;-73
2021/11/23 03:48:49;;;;;;;4.63;2.83;;;;;;;-1.80;75.02;101138.03;5010161;28;106563;-73
2021/11/23 03:51:14;;;;;;;6.35;3.35;;;;;;;-1.83;75.26;101138.19;5009644;28;106098;-75
2021/11/23 03:53:40;;;;;;;4.50;2.15;;;;;;;-1.84;75.83;101122.59;5010657;28;105923;-72
2021/11/23 03:56:06;;;;;;;4.20;2.38;;;;;;;-1.81;76.02;101125.88;5009534;28;105963;-74
2021/11/23 03:58:31;;;;;;;7.13;2.33;;;;;;;-1.81;75.60;101131.09;5009272;28;106040;-79
2021/11/23 04:00:56;;;;;;;4.82;2.80;;;;;;;-1.83;75.64;101135.56;5009538;28;105884;-80
2021/11/23 04:03:22;;;;;;;2.30;2.03;;;;;;;-1.84;75.96;101138.25;5009978;28;106026;-77
2021/11/23 04:05:47;;;;;;;3.45;2.08;;;;;;;-1.85;75.92;101144.38;5009565;28;106190;-76
2021/11/23 04:08:13;;;;;;;3.20;2.13;;;;;;;-1.83;75.82;101137.31;5009910;28;105874;-78
2021/11/23 04:10:39;;;;;;;8.15;3.05;;;;;;;-1.82;76.43;101139.84;5009446;28;105882;-77
2021/11/23 04:13:04;;;;;;;4.35;2.78;;;;;;;-1.83;75.71;101138.19;5009567;28;106179;-75
2021/11/23 04:15:29;;;;;;;4.25;2.65;;;;;;;-1.84;75.99;101131.25;5009131;28;106222;-74
2021/11/23 04:17:55;;;;;;;5.45;3.15;;;;;;;-1.85;75.89;101129.53;5008472;28;106664;-74
2021/11/23 04:20:20;;;;;;;8.02;3.60;;;;;;;-1.87;76.15;101123.56;5008428;28;106150;-80
2021/11/23 04:22:46;;;;;;;8.95;2.85;;;;;;;-1.89;76.02;101133.22;5008959;28;106089;-73
2021/11/23 04:25:14;;;;;;;8.75;3.10;;;;;;;-1.92;75.91;101123.75;5008756;28;106450;-74
2021/11/23 04:27:39;;;;;;;8.25;3.35;;;;;;;-1.94;76.17;101128.19;5008401;28;106320;-75
2021/11/23 04:30:07;;;;;;;6.20;2.72;;;;;;;-1.95;76.19;101123.03;5007173;28;106893;-73
2021/11/23 04:32:33;;;;;;;7.53;3.00;;;;;;;-1.95;75.75;101120.44;5010006;28;105957;-76
2021/11/23 06:05:42;;;;;;;4.38;2.53;;;;;;;-2.82;77.16;101084.88;4984599;28;106478;-69
2021/11/23 06:08:07;;;;;;;4.57;3.17;;;;;;;-2.74;77.09;101087.19;4986208;28;105912;-70
2021/11/23 06:10:32;;;;;;;7.05;2.35;;;;;;;-2.65;77.24;101085.94;4984974;28;106228;-69
2021/11/23 06:12:59;;;;;;;4.25;2.03;;;;;;;-2.53;78.24;101088.03;4984671;28;106658;-69
2021/11/23 06:15:29;;;;;;;3.13;2.38;;;;;;;-2.40;78.04;101085.78;4984777;28;106056;-69
2021/11/23 06:18:02;;;;;;;8.15;1.80;;;;;;;-2.25;78.17;101084.28;4985236;28;106055;-72
2021/11/23 06:20:32;;;;;;;6.22;2.35;;;;;;;-2.14;77.91;101089.06;4985306;28;105967;-72
2021/11/23 06:23:00;;;;;;;9.35;2.40;;;;;;;-2.05;77.78;101081.66;4984882;28;106121;-74
2021/11/23 06:25:27;;;;;;;4.90;2.53;;;;;;;-1.96;77.56;101075.16;4984714;28;106137;-70
2021/11/23 06:27:53;;;;;;;8.35;3.13;;;;;;;-1.88;77.26;101060.00;4985739;28;105986;-72
2021/11/23 06:30:20;;;;;;;4.82;2.92;;;;;;;-1.78;77.25;101067.44;4985517;28;106100;-74
2021/11/23 06:32:46;;;;;;;6.25;3.05;;;;;;;-1.70;77.33;101074.00;4984424;28;105856;-72
2021/11/23 06:35:11;;;;;;;7.55;2.50;;;;;;;-1.63;77.06;101079.78;4984865;28;105825;-74
2021/11/23 06:37:38;;;;;;;6.18;3.05;;;;;;;-1.54;77.48;101087.22;4985245;28;105903;-71
2021/11/23 06:40:08;;;;;;;4.55;2.60;;;;;;;-1.44;77.39;101090.25;4985116;28;106210;-77
2021/11/23 06:42:34;;;;;;;6.97;3.65;;;;;;;-1.30;77.18;101094.00;4983350;28;107993;-71
2021/11/23 06:44:59;;;;;;;4.72;2.95;;;;;;;-1.17;77.43;101089.91;4967433;28;106272;-73
2021/11/23 06:47:25;;;;;;;8.85;3.70;;;;;;;-1.05;77.46;101083.25;4965596;28;106056;-72
2021/11/23 06:49:51;;;;;;;8.73;3.30;;;;;;;-0.96;76.94;101082.78;4965065;28;105909;-73
2021/11/23 06:52:18;;;;;;;7.63;3.75;;;;;;;-0.83;77.27;101090.91;4964739;28;106819;-72
2021/11/23 06:54:47;;;;;;;5.70;3.28;;;;;;;-0.71;76.90;101092.91;4964496;28;106073;-74
2021/11/23 06:57:12;;;;;;;5.82;3.50;;;;;;;-0.57;76.44;101094.84;4979766;28;105938;-73
2021/11/23 06:59:39;;;;;;;7.25;3.85;;;;;;;-0.40;77.27;101101.84;4984955;28;106434;-72
2021/11/23 07:02:05;;;;;;;5.25;3.25;;;;;;;-0.23;76.65;101100.16;4984455;28;106109;-70
2021/11/23 07:04:31;;;;;;;6.22;3.42;;;;;;;-0.08;76.57;101099.38;4983457;28;107128;-74
2021/11/23 07:06:57;;;;;;;7.32;3.72;;;;;;;0.13;76.96;101096.56;4985044;28;105881;-73
2021/11/23 07:09:23;;;;;;;9.65;4.50;;;;;;;0.31;76.60;101092.13;4984420;28;106702;-73
2021/11/23 07:11:49;;;;;;;8.63;4.47;;;;;;;0.48;76.67;101091.22;4983569;28;106230;-72
2021/11/23 07:14:14;;;;;;;9.15;5.00;;;;;;;0.67;76.54;101098.94;4983885;28;106070;-72
2021/11/23 07:16:40;;;;;;;14.23;5.65;;;;;;;0.86;76.35;101100.53;4973857;28;105969;-72
2021/11/23 07:19:05;;;;;;;10.82;4.90;;;;;;;1.09;76.03;101107.13;4970671;28;106306;-71
2021/11/23 07:21:31;;;;;;;8.90;4.43;;;;;;;1.31;76.07;101104.97;4971157;28;106434;-71
2021/11/23 07:23:58;;;;;;;8.77;3.72;;;;;;;1.50;75.42;101103.91;4970583;28;105961;-73
2021/11/23 07:26:24;;;;;;;7.70;3.78;;;;;;;1.77;75.42;101106.69;4971204;28;105919;-72
2021/11/23 07:28:49;;;;;;;8.43;2.83;;;;;;;2.00;75.54;101102.69;4967280;28;106008;-74
2021/11/23 07:31:16;;;;;;;6.60;3.08;;;;;;;2.37;75.74;101096.97;4950985;28;105743;-72
2021/11/23 07:33:41;;;;;;;7.90;3.22;;;;;;;2.64;75.02;101101.47;4949896;28;107840;-72
2021/11/23 07:36:07;;;;;;;5.80;2.50;;;;;;;2.82;74.41;101102.09;4951557;28;105940;-72
2021/11/23 07:38:32;;;;;;;5.93;2.72;;;;;;;3.17;74.21;101109.47;4951128;28;106229;-70
2021/11/23 07:40:58;;;;;;;7.82;3.60;;;;;;;3.43;73.19;101110.44;4951075;28;106063;-71
2021/11/23 07:43:23;;;;;;;3.97;1.90;;;;;;;3.90;73.03;101121.38;4950950;28;106216;-72
2021/11/23 07:45:49;;;;;;;4.20;1.90;;;;;;;4.78;73.79;101106.50;4951976;28;106002;-74
2021/11/23 07:48:14;;;;;;;5.15;2.50;;;;;;;5.66;71.29;101116.78;4951442;28;105831;-71
2021/11/23 07:50:40;;;;;;;7.78;2.88;;;;;;;6.43;70.01;101110.91;4950499;28;106414;-71
2021/11/23 07:53:07;;;;;;;4.18;2.35;;;;;;;7.35;70.02;101108.91;4950922;28;106023;-72
2021/11/23 07:55:33;;;;;;;6.68;2.72;;;;;;;8.00;67.43;101107.00;4951088;28;106020;-71
2021/11/23 07:57:58;;;;;;;5.68;2.50;;;;;;;8.52;67.11;101106.16;4950809;28;105750;-70
2021/11/23 08:00:25;;;;;;;7.60;2.40;;;;;;;8.79;66.20;101098.41;4950347;28;105949;-72
2021/11/23 08:02:51;;;;;;;7.10;3.00;;;;;;;8.90;64.80;101093.94;4950363;28;105907;-72
2021/11/23 08:05:16;;;;;;;5.65;2.80;;;;;;;9.88;65.31;101104.56;4949818;28;106359;-72
2021/11/23 08:07:42;;;;;;;7.30;2.72;;;;;;;10.88;64.78;101092.44;4950300;28;106279;-75
2021/11/23 08:10:07;;;;;;;7.10;3.20;;;;;;;11.84;62.58;101094.44;4948831;28;108816;-72
2021/11/23 08:12:33;;;;;;;5.25;2.38;;;;;;;13.03;60.95;101094.66;4950017;28;107070;-70
2021/11/23 08:14:59;;;;;;;8.13;2.28;;;;;;;14.02;56.57;101092.00;4950788;28;106149;-73
2021/11/23 08:17:25;;;;;;;6.88;2.70;;;;;;;14.96;56.05;101085.94;4950402;28;105979;-72
2021/11/23 08:19:50;;;;;;;4.25;1.98;;;;;;;15.59;53.78;101101.94;4950046;28;106964;-72
2021/11/23 08:22:16;;;;;;;5.18;2.20;;;;;;;16.17;51.40;101099.53;4950308;28;106055;-72
2021/11/23 08:24:41;;;;;;;7.03;2.67;;;;;;;16.94;50.07;101092.06;4951132;28;105936;-74
2021/11/23 08:27:07;;;;;;;5.38;2.35;;;;;;;17.97;48.01;101083.66;4949279;28;105997;-70
2021/11/23 08:29:32;;;;;;;5.28;2.15;;;;;;;18.76;47.07;101090.50;4949256;28;105977;-72
2021/11/23 08:31:58;;;;;;;5.65;2.55;;;;;;;19.71;43.43;101085.03;4949614;28;106255;-70
2021/11/23 08:34:23;;;;;;;4.78;2.45;;;;;;;19.77;40.78;101088.78;4950418;28;105904;-71
2021/11/23 08:36:50;;;;;;;6.97;2.33;;;;;;;19.57;38.49;101086.06;4950254;28;105896;-72
2021/11/23 08:39:16;;;;;;;4.55;2.20;;;;;;;20.28;39.06;101096.22;4949534;28;105996;-74
2021/11/23 08:41:43;;;;;;;7.32;3.20;;;;;;;20.91;38.90;101097.44;4949833;28;106071;-68
2021/11/23 08:44:08;;;;;;;5.55;2.60;;;;;;;21.89;37.59;101084.41;4950463;28;106501;-68
2021/11/23 08:46:34;;;;;;;7.43;2.45;;;;;;;21.32;34.70;101089.03;4950664;28;106249;-82
2021/11/23 08:49:00;;;;;;;7.22;2.75;;;;;;;20.87;35.76;101096.22;4951087;28;105993;-80
2021/11/23 08:51:34;;;;;;;7.78;3.00;;;;;;;21.81;36.11;101087.41;4950541;28;105933;-69
2021/11/23 08:54:00;;;;;;;6.65;2.47;;;;;;;21.42;31.97;101084.78;4950818;28;106066;-83
2021/11/23 08:56:29;;;;;;;6.93;2.97;;;;;;;20.51;32.85;101094.06;4948977;28;106254;-79
2021/11/23 08:58:56;;;;;;;7.32;2.80;;;;;;;18.15;32.42;101100.19;4954120;28;106029;-68
2021/11/23 09:01:24;;;;;;;5.80;2.40;;;;;;;15.64;34.44;101091.50;4950341;28;106450;-72
2021/11/23 09:03:50;;;;;;;6.60;2.60;;;;;;;14.03;37.08;101104.38;4950713;28;106053;-78
2021/11/23 09:06:16;;;;;;;5.07;2.20;;;;;;;12.66;37.20;101111.94;4950311;28;106382;-77
2021/11/23 09:08:58;;;;;;;6.53;2.80;;;;;;;11.56;38.47;101111.56;4950390;28;105965;-78
2021/11/23 09:11:24;;;;;;;10.10;2.95;;;;;;;10.90;41.27;101106.44;4948414;28;106024;-78
2021/11/23 09:13:51;;;;;;;6.93;2.67;;;;;;;10.35;41.42;101114.41;4950616;28;105863;-81
2021/11/23 09:16:16;;;;;;;5.05;2.45;;;;;;;9.86;41.93;101114.53;4949516;28;106194;-73
2021/11/23 09:18:42;;;;;;;5.53;2.58;;;;;;;9.45;42.71;101109.41;4949888;28;105898;-80
2021/11/23 09:21:07;;;;;;;6.35;2.50;;;;;;;8.93;43.94;101105.16;4948048;28;108404;-78
2021/11/23 09:23:33;;;;;;;8.90;2.45;;;;;;;8.42;44.45;101117.56;4950419;28;106031;-82
2021/11/23 09:25:58;;;;;;;9.50;2.90;;;;;;;7.92;45.23;101125.38;4950082;28;106327;-77
2021/11/23 09:28:24;;;;;;;6.90;2.25;;;;;;;7.60;46.13;101105.91;4949244;28;106067;-75
2021/11/23 09:30:49;;;;;;;19.45;2.67;;;;;;;7.41;46.71;101106.59;4951894;28;105865;-72
2021/11/23 09:33:16;;;;;;;6.15;2.10;;;;;;;7.28;47.17;101111.22;4959357;28;106370;-70
2021/11/23 09:35:42;;;;;;;7.30;2.72;;;;;;;7.15;48.13;101110.53;4955231;28;106198;-73
2021/11/23 09:38:07;;;;;;;4.43;2.25;;;;;;;6.94;48.62;101104.25;4948673;28;106537;-73
2021/11/23 09:40:33;;;;;;;10.77;2.20;;;;;;;6.67;48.85;101095.84;4948917;28;105959;-73
2021/11/23 09:42:59;;;;;;;6.18;2.00;;;;;;;6.55;50.07;101103.81;4954804;28;106084;-72
2021/11/23 09:45:25;;;;;;;5.50;1.90;;;;;;;6.50;50.58;101091.91;4959429;28;106221;-75
2021/11/23 09:47:51;;;;;;;4.60;2.17;;;;;;;6.44;50.57;101087.94;4957631;28;106125;-82
2021/11/23 09:50:17;;;;;;;5.32;1.92;;;;;;;6.33;50.90;101086.13;4958076;28;106172;-77
2021/11/23 09:52:43;;;;;;;6.97;2.17;;;;;;;6.20;51.14;101082.75;4959975;28;106172;-78
2021/11/23 09:55:11;;;;;;;6.90;2.47;;;;;;;6.32;51.52;101089.72;4958076;28;106197;-74
2021/11/23 09:57:37;;;;;;;4.40;2.05;;;;;;;6.40;51.72;101084.69;4957813;28;106830;-73
2021/11/23 10:00:21;;;;;;;5.78;2.63;;;;;;;6.56;51.87;101083.44;4959330;28;105897;-74
2021/11/23 10:02:46;;;;;;;6.10;3.13;;;;;;;6.60;52.13;101082.25;4959602;28;105965;-76
2021/11/23 10:05:15;;;;;;;9.27;2.85;;;;;;;6.57;52.45;101090.44;4957506;28;106329;-76
2021/11/23 10:07:42;;;;;;;5.43;2.05;;;;;;;6.55;53.28;101079.97;4957644;28;106036;-77
2021/11/23 10:10:18;;;;;;;9.45;3.05;;;;;;;6.55;53.30;101093.22;4958640;28;105942;-72
2021/11/23 10:13:00;;;;;;;9.40;3.38;;;;;;;6.59;53.76;101097.31;4959594;28;106152;-69
2021/11/23 10:15:34;;;;;;;7.80;2.78;;;;;;;6.57;53.74;101090.44;4958667;28;106166;-75
2021/11/23 10:18:13;;;;;;;6.03;2.33;;;;;;;6.42;54.50;101093.34;4957582;28;107208;-72
2021/11/23 10:20:44;;;;;;;8.98;2.33;;;;;;;6.29;55.24;101082.03;4957897;28;106481;-72
2021/11/23 10:23:33;;;;;;;5.95;2.55;;;;;;;6.17;55.70;101083.00;4965183;28;105969;-71
2021/11/23 10:26:18;;;;;;;6.35;2.28;;;;;;;6.08;55.89;101089.84;4956177;28;106241;-71
2021/11/23 10:28:55;;;;;;;6.43;2.30;;;;;;;6.02;56.60;101075.28;4956693;28;106065;-78
2021/11/23 10:31:29;;;;;;;9.52;2.80;;;;;;;5.97;56.93;101072.13;4956081;28;105854;-74
2021/11/23 10:33:59;;;;;;;7.30;2.53;;;;;;;5.92;57.42;101083.06;4949055;28;105800;-74
2021/11/23 10:36:29;;;;;;;6.72;2.97;;;;;;;5.87;57.67;101076.44;4948182;28;105960;-74
2021/11/23 10:39:03;;;;;;;9.90;2.30;;;;;;;5.83;58.43;101077.66;4948147;28;106388;-77
2021/11/23 10:41:29;;;;;;;4.72;2.10;;;;;;;5.84;58.82;101087.28;4948057;28;105965;-76
2021/11/23 10:43:54;;;;;;;7.25;2.30;;;;;;;5.78;58.72;101098.28;4948725;28;106016;-74
2021/11/23 10:46:22;;;;;;;6.40;3.28;;;;;;;5.68;59.09;101080.47;4947888;28;106216;-74
2021/11/23 10:48:57;;;;;;;7.10;2.95;;;;;;;5.60;59.38;101088.16;4947916;28;105879;-74
2021/11/23 10:51:24;;;;;;;6.65;2.70;;;;;;;5.48;59.71;101081.16;4949716;28;106115;-76
2021/11/23 10:53:50;;;;;;;4.38;2.38;;;;;;;5.34;60.28;101061.88;4952083;28;106322;-74
2021/11/23 10:56:20;;;;;;;5.00;2.55;;;;;;;5.21;60.58;101076.97;4953907;28;106372;-74
2021/11/23 10:58:48;;;;;;;9.63;2.67;;;;;;;5.14;61.11;101078.38;4961066;28;106006;-73
2021/11/23 11:01:17;;;;;;;8.50;3.05;;;;;;;5.11;61.47;101075.97;4959075;28;106663;-75
2021/11/23 11:03:43;;;;;;;7.35;2.53;;;;;;;5.10;61.56;101083.06;4969754;28;106361;-70
2021/11/23 11:06:09;;;;;;;6.40;2.83;;;;;;;5.09;62.06;101079.56;4969269;28;106354;-74
2021/11/23 11:08:46;;;;;;;7.65;3.58;;;;;;;5.13;62.19;101074.91;4969275;28;106837;-75
2021/11/23 11:11:19;;;;;;;9.70;3.22;;;;;;;5.18;62.11;101079.84;4969073;28;106392;-75
2021/11/23 11:13:51;;;;;;;8.23;2.83;;;;;;;5.23;62.50;101083.81;4969815;28;106015;-76
2021/11/23 11:16:19;;;;;;;6.82;3.05;;;;;;;5.26;62.69;101082.75;4969756;28;106085;-75
2021/11/23 11:19:04;;;;;;;7.43;3.35;;;;;;;5.31;62.77;101072.69;4968935;28;107785;-74
2021/11/23 11:21:29;;;;;;;6.25;3.15;;;;;;;5.32;63.24;101066.44;4969311;28;106076;-73
2021/11/23 11:24:52;;;;;;;9.75;3.15;;;;;;;5.33;63.41;101068.16;4970308;28;106214;-75
2021/11/23 11:27:47;;;;;;;6.15;3.00;;;;;;;5.33;63.52;101076.06;4969138;28;106041;-82
2021/11/23 11:30:35;;;;;;;7.55;3.47;;;;;;;5.34;63.80;101068.97;4968612;28;106249;-76
2021/11/23 11:33:06;;;;;;;6.75;2.83;;;;;;;5.37;64.24;101063.44;4969279;28;106085;-74
2021/11/23 11:35:38;;;;;;;7.13;3.10;;;;;;;5.36;64.60;101062.63;4969682;28;106047;-77
2021/11/23 11:38:07;;;;;;;6.88;3.05;;;;;;;5.28;64.73;101074.72;4968099;28;106111;-75
2021/11/23 11:40:38;;;;;;;6.80;3.05;;;;;;;5.22;65.18;101066.31;4949417;28;106792;-80
2021/11/23 11:43:06;;;;;;;6.85;2.47;;;;;;;5.17;65.59;101072.88;4948993;28;106145;-78
2021/11/23 11:45:39;;;;;;;6.72;3.47;;;;;;;5.12;65.79;101075.00;4950199;28;106029;-80
2021/11/23 11:48:23;;;;;;;9.45;2.78;;;;;;;5.14;66.13;101073.09;4949205;28;106383;-77
2021/11/23 11:50:57;;;;;;;5.85;3.55;;;;;;;5.14;66.71;101073.94;4948826;28;106062;-83
2021/11/23 11:53:23;;;;;;;7.65;3.00;;;;;;;5.13;66.17;101080.19;4949535;28;106060;-72
2021/11/23 11:55:50;;;;;;;5.97;3.47;;;;;;;5.11;66.86;101070.69;4949309;28;106020;-70
2021/11/23 11:58:41;;;;;;;5.45;3.47;;;;;;;5.11;66.63;101068.88;4952639;28;106259;-69
2021/11/23 12:01:37;;;;;;;6.65;3.38;;;;;;;5.09;66.86;101066.34;4953438;28;105867;-70
2021/11/23 12:04:15;;;;;;;4.75;3.15;;;;;;;5.06;67.23;101076.31;4960078;28;106396;-70
2021/11/23 12:06:53;;;;;;;8.50;3.88;;;;;;;5.01;67.56;101068.72;4956535;28;106005;-71
2021/11/23 12:09:32;;;;;;;5.78;3.88;;;;;;;4.97;67.94;101064.59;4950748;28;106381;-71
2021/11/23 12:12:06;;;;;;;6.05;3.90;;;;;;;4.99;67.75;101065.34;4950079;28;105771;-71
2021/11/23 12:14:50;;;;;;;6.10;3.63;;;;;;;5.04;67.83;101068.50;4948017;28;106104;-70
2021/11/23 12:17:28;;;;;;;7.03;3.50;;;;;;;5.12;68.07;101059.16;4950794;28;106016;-70
2021/11/23 12:20:15;;;;;;;6.18;4.20;;;;;;;5.06;67.98;101066.59;4950255;28;105897;-68
2021/11/23 12:22:45;;;;;;;8.80;4.13;;;;;;;5.05;68.30;101069.34;4950291;28;107159;-69
2021/11/23 12:25:13;;;;;;;8.27;4.38;;;;;;;5.03;68.29;101065.94;4948082;28;106353;-69
2021/11/23 12:27:44;;;;;;;5.80;4.00;;;;;;;4.99;68.60;101073.28;4948388;28;106355;-70
2021/11/23 12:30:11;;;;;;;7.95;4.95;;;;;;;5.05;68.82;101072.81;4947669;28;105976;-73
2021/11/23 12:32:37;;;;;;;8.30;4.28;;;;;;;5.12;68.95;101075.00;4953712;28;106518;-79
2021/11/23 12:35:05;;;;;;;8.27;4.75;;;;;;;5.15;68.91;101072.13;4957946;28;106584;-71
2021/11/23 12:37:35;;;;;;;7.35;4.65;;;;;;;5.15;68.89;101077.41;4959573;28;106274;-72
2021/11/23 12:40:15;;;;;;;9.68;4.70;;;;;;;5.11;68.75;101070.69;4958355;28;106377;-72
2021/11/23 12:42:51;;;;;;;10.57;5.55;;;;;;;5.08;68.98;101071.75;4957090;28;106916;-72
2021/11/23 12:45:26;;;;;;;6.05;4.10;;;;;;;5.05;69.05;101071.97;4969413;28;106020;-76
2021/11/23 12:47:52;;;;;;;9.20;4.97;;;;;;;5.01;69.23;101071.34;4952366;28;106138;-77
2021/11/23 12:50:18;;;;;;;7.20;4.15;;;;;;;5.02;69.18;101069.56;4950171;28;106170;-68
2021/11/23 12:52:45;;;;;;;6.60;4.55;;;;;;;5.00;69.42;101069.69;4949317;28;106187;-67
2021/11/23 12:55:15;;;;;;;6.00;4.65;;;;;;;4.96;69.15;101084.06;4949310;28;106088;-70
2021/11/23 12:57:47;;;;;;;6.38;4.88;;;;;;;4.91;69.22;101088.84;4949255;28;105905;-71